createdAt,value
2022-08-17T00:00:55.080Z,23.20
2022-08-17T00:01:55.090Z,25.50
2022-08-17T00:02:55.058Z,20.89
2022-08-17T00:03:55.047Z,20.89
2022-08-17T00:04:55.276Z,22.70
2022-08-17T00:05:55.023Z,20.89
2022-08-17T00:06:55.014Z,20.50
2022-08-17T00:07:55.005Z,21.79
2022-08-17T00:08:55.000Z,22.60
2022-08-17T00:09:54.984Z,25.79
2022-08-17T00:10:54.972Z,22.29
2022-08-17T00:12:42.807Z,23.00
2022-08-17T00:12:56.389Z,26.10
2022-08-17T00:13:56.018Z,23.89
2022-08-17T00:14:54.929Z,24.20
2022-08-17T00:15:54.917Z,21.20
2022-08-17T00:16:57.094Z,22.50
2022-08-17T00:17:54.897Z,25.29
2022-08-17T00:19:07.823Z,26.70
2022-08-17T00:19:55.899Z,25.50
2022-08-17T00:20:54.865Z,24.89
2022-08-17T00:22:29.772Z,26.79
2022-08-17T00:22:55.863Z,28.29
2022-08-17T00:23:54.833Z,29.10
2022-08-17T00:24:54.826Z,27.10
2022-08-17T00:25:54.809Z,27.89
2022-08-17T00:26:54.801Z,30.29
2022-08-17T00:27:54.790Z,30.00
2022-08-17T00:28:54.778Z,27.70
2022-08-17T00:29:54.769Z,28.50
2022-08-17T00:30:54.758Z,26.00
2022-08-17T00:31:54.747Z,29.60
2022-08-17T00:33:12.680Z,30.10
2022-08-17T00:33:55.748Z,26.29
2022-08-17T00:34:54.723Z,28.60
2022-08-17T00:35:54.725Z,26.00
2022-08-17T00:36:54.698Z,27.39
2022-08-17T00:37:54.690Z,26.10
2022-08-17T00:38:54.676Z,28.60
2022-08-17T00:39:54.773Z,28.60
2022-08-17T00:40:55.815Z,28.60
2022-08-17T00:41:54.658Z,27.39
2022-08-17T00:42:54.638Z,29.10
2022-08-17T00:43:54.625Z,27.29
2022-08-17T00:44:54.610Z,28.60
2022-08-17T00:45:54.618Z,27.70
2022-08-17T00:46:54.591Z,27.10
2022-08-17T00:47:54.582Z,26.70
2022-08-17T00:48:54.568Z,33.70
2022-08-17T00:49:54.556Z,29.70
2022-08-17T00:50:54.549Z,31.79
2022-08-17T00:51:54.560Z,28.50
2022-08-17T00:52:54.524Z,27.79
2022-08-17T00:53:54.517Z,27.29
2022-08-17T00:54:54.505Z,26.50
2022-08-17T00:55:54.493Z,23.89
2022-08-17T00:56:54.492Z,23.60
2022-08-17T00:57:55.535Z,25.00
2022-08-17T00:58:54.462Z,23.39
2022-08-17T01:00:02.195Z,23.10
2022-08-17T01:00:55.555Z,23.39
2022-08-17T01:01:54.433Z,23.60
2022-08-17T01:02:54.596Z,23.89
2022-08-17T01:03:58.036Z,23.89
2022-08-17T01:04:54.403Z,25.00
2022-08-17T01:05:54.390Z,23.60
2022-08-17T01:06:54.383Z,26.10
2022-08-17T01:07:54.404Z,29.89
2022-08-17T01:08:57.596Z,27.29
2022-08-17T01:09:54.349Z,25.50
2022-08-17T01:10:58.690Z,24.00
2022-08-17T01:11:55.404Z,23.29
2022-08-17T01:12:54.322Z,26.50
2022-08-17T01:13:54.307Z,22.00
2022-08-17T01:14:54.299Z,23.29
2022-08-17T01:15:54.287Z,21.29
2022-08-17T01:16:54.282Z,21.89
2022-08-17T01:17:54.269Z,22.70
2022-08-17T01:18:54.260Z,24.70
2022-08-17T01:19:54.247Z,23.89
2022-08-17T01:20:54.237Z,21.89
2022-08-17T01:21:54.222Z,20.89
2022-08-17T01:22:54.220Z,20.10
2022-08-17T01:23:54.202Z,23.10
2022-08-17T01:24:54.197Z,20.89
2022-08-17T01:25:54.186Z,25.20
2022-08-17T01:26:54.171Z,23.00
2022-08-17T01:27:54.164Z,21.70
2022-08-17T01:28:55.937Z,21.70
2022-08-17T01:29:54.143Z,19.89
2022-08-17T01:30:58.420Z,20.60
2022-08-17T01:31:54.121Z,21.70
2022-08-17T01:32:54.108Z,23.10
2022-08-17T01:33:54.097Z,20.70
2022-08-17T01:34:54.091Z,21.60
2022-08-17T01:35:54.086Z,21.79
2022-08-17T01:36:54.067Z,19.70
2022-08-17T01:37:54.060Z,22.00
2022-08-17T01:38:54.053Z,25.60
2022-08-17T01:39:54.141Z,24.29
2022-08-17T01:40:57.572Z,23.89
2022-08-17T01:41:54.017Z,22.10
2022-08-17T01:42:54.004Z,22.39
2022-08-17T01:43:53.999Z,22.50
2022-08-17T01:44:53.988Z,25.10
2022-08-17T01:46:02.467Z,24.79
2022-08-17T01:46:54.988Z,23.79
2022-08-17T01:47:53.956Z,21.39
2022-08-17T01:48:53.946Z,21.70
2022-08-17T01:49:53.934Z,19.50
2022-08-17T01:50:53.925Z,23.89
2022-08-17T01:51:53.913Z,21.39
2022-08-17T01:52:53.906Z,26.50
2022-08-17T01:53:53.895Z,20.50
2022-08-17T01:54:53.880Z,24.60
2022-08-17T01:55:53.873Z,24.00
2022-08-17T01:56:53.859Z,23.60
2022-08-17T01:57:53.850Z,20.60
2022-08-17T01:58:53.838Z,20.20
2022-08-17T01:59:53.833Z,23.60
2022-08-17T02:01:01.082Z,23.10
2022-08-17T02:01:54.924Z,22.79
2022-08-17T02:02:53.798Z,22.00
2022-08-17T02:04:01.249Z,21.39
2022-08-17T02:04:54.798Z,22.29
2022-08-17T02:05:53.769Z,21.00
2022-08-17T02:06:54.667Z,20.20
2022-08-17T02:08:00.402Z,20.50
2022-08-17T02:09:02.257Z,19.10
2022-08-17T02:09:54.742Z,19.50
2022-08-17T02:10:53.712Z,19.60
2022-08-17T02:11:54.117Z,20.00
2022-08-17T02:12:53.929Z,20.89
2022-08-17T02:13:57.891Z,21.29
2022-08-17T02:14:54.691Z,21.89
2022-08-17T02:15:53.659Z,23.79
2022-08-17T02:16:53.649Z,24.50
2022-08-17T02:17:54.861Z,23.50
2022-08-17T02:18:53.629Z,23.39
2022-08-17T02:19:53.616Z,23.00
2022-08-17T02:20:53.611Z,24.89
2022-08-17T02:21:53.598Z,25.39
2022-08-17T02:22:53.587Z,22.89
2022-08-17T02:23:53.577Z,23.79
2022-08-17T02:24:58.461Z,22.50
2022-08-17T02:25:53.558Z,26.60
2022-08-17T02:26:53.544Z,21.89
2022-08-17T02:27:53.536Z,24.79
2022-08-17T02:28:53.523Z,24.39
2022-08-17T02:29:53.514Z,22.70
2022-08-17T02:31:01.640Z,23.29
2022-08-17T02:31:54.514Z,24.00
2022-08-17T02:32:53.487Z,23.60
2022-08-17T02:33:56.673Z,23.39
2022-08-17T02:34:53.461Z,25.00
2022-08-17T02:35:53.453Z,25.10
2022-08-17T02:36:53.446Z,24.50
2022-08-17T02:37:55.730Z,25.00
2022-08-17T02:38:53.424Z,20.79
2022-08-17T02:39:53.456Z,18.89
2022-08-17T02:40:53.402Z,18.70
2022-08-17T02:41:53.390Z,19.70
2022-08-17T02:42:53.379Z,18.60
2022-08-17T02:43:53.367Z,19.00
2022-08-17T02:44:53.357Z,19.79
2022-08-17T02:45:53.347Z,17.50
2022-08-17T02:46:53.340Z,18.39
2022-08-17T02:47:53.326Z,15.60
2022-08-17T03:40:57.603Z,12.80
2022-08-17T03:41:53.784Z,10.89
2022-08-17T03:42:52.751Z,10.10
2022-08-17T03:43:52.740Z,12.00
2022-08-17T03:46:52.708Z,12.39
2022-08-17T03:53:52.638Z,17.50
2022-08-17T03:54:52.626Z,17.10
2022-08-17T03:55:52.621Z,16.60
2022-08-17T03:56:52.607Z,17.70
2022-08-17T03:57:52.596Z,19.10
2022-08-17T03:58:52.586Z,21.79
2022-08-17T03:59:52.577Z,25.89
2022-08-17T04:00:52.568Z,31.10
2022-08-17T04:01:52.605Z,27.60
2022-08-17T04:02:52.584Z,31.20
2022-08-17T04:03:52.532Z,34.40
2022-08-17T04:04:52.676Z,41.09
2022-08-17T04:05:52.512Z,52.29
2022-08-17T04:06:52.502Z,57.00
2022-08-17T04:07:52.499Z,78.59
2022-08-17T04:08:52.480Z,100.90
2022-08-17T04:09:52.469Z,108.80
2022-08-17T04:10:52.457Z,117.09
2022-08-17T04:11:52.447Z,123.80
2022-08-17T04:12:52.678Z,131.10
2022-08-17T04:13:52.425Z,137.30
2022-08-17T04:14:54.600Z,137.60
2022-08-17T04:15:52.403Z,133.69
2022-08-17T04:16:52.399Z,126.00
2022-08-17T04:17:52.386Z,117.19
2022-08-17T04:18:52.379Z,114.40
2022-08-17T04:19:52.365Z,109.40
2022-08-17T04:20:52.352Z,91.50
2022-08-17T04:21:52.341Z,92.30
2022-08-17T04:22:52.330Z,94.80
2022-08-17T04:23:52.325Z,81.40
2022-08-17T04:24:52.312Z,85.19
2022-08-17T04:25:52.359Z,81.19
2022-08-17T04:26:54.595Z,75.09
2022-08-17T04:27:52.286Z,78.69
2022-08-17T04:28:52.271Z,90.40
2022-08-17T04:29:54.593Z,97.50
2022-08-17T04:30:52.256Z,94.40
2022-08-17T04:31:52.241Z,101.19
2022-08-17T04:33:03.551Z,97.40
2022-08-17T04:33:53.240Z,84.90
2022-08-17T04:34:52.210Z,88.00
2022-08-17T04:35:52.199Z,77.80
2022-08-17T04:36:52.191Z,77.30
2022-08-17T04:37:52.180Z,82.40
2022-08-17T04:38:52.171Z,75.00
2022-08-17T04:39:52.205Z,78.50
2022-08-17T04:40:52.156Z,88.90
2022-08-17T04:41:52.140Z,82.30
2022-08-17T04:42:52.264Z,92.00
2022-08-17T04:43:53.143Z,96.69
2022-08-17T04:44:52.109Z,87.00
2022-08-17T04:45:56.339Z,76.80
2022-08-17T04:46:52.092Z,74.90
2022-08-17T04:47:52.076Z,92.59
2022-08-17T04:48:52.069Z,89.80
2022-08-17T04:49:52.058Z,92.30
2022-08-17T04:50:52.046Z,88.69
2022-08-17T04:51:56.295Z,71.90
2022-08-17T04:52:53.055Z,62.70
2022-08-17T04:53:54.649Z,75.69
2022-08-17T04:54:52.057Z,80.30
2022-08-17T04:55:51.996Z,79.69
2022-08-17T04:56:51.986Z,86.50
2022-08-17T04:57:51.972Z,87.30
2022-08-17T04:58:51.966Z,82.80
2022-08-17T04:59:51.955Z,93.30
2022-08-17T05:00:52.033Z,87.40
2022-08-17T05:01:51.934Z,96.09
2022-08-17T05:02:52.470Z,83.80
2022-08-17T05:03:51.911Z,74.30
2022-08-17T05:04:51.898Z,71.30
2022-08-17T05:05:51.891Z,73.00
2022-08-17T05:06:51.880Z,77.50
2022-08-17T05:07:51.864Z,90.59
2022-08-17T05:08:51.855Z,92.30
2022-08-17T05:09:51.845Z,88.50
2022-08-17T05:10:51.836Z,80.90
2022-08-17T05:11:51.829Z,82.90
2022-08-17T05:12:51.990Z,87.40
2022-08-17T05:13:51.804Z,87.50
2022-08-17T05:14:51.792Z,87.50
2022-08-17T05:15:51.783Z,104.90
2022-08-17T05:16:51.829Z,100.50
2022-08-17T05:17:51.761Z,97.09
2022-08-17T05:18:51.750Z,92.90
2022-08-17T05:19:52.183Z,91.80
2022-08-17T05:20:52.469Z,77.80
2022-08-17T05:21:51.819Z,68.80
2022-08-17T05:22:51.967Z,89.59
2022-08-17T05:23:54.808Z,92.30
2022-08-17T05:24:53.871Z,89.90
2022-08-17T05:25:51.728Z,89.80
2022-08-17T05:26:51.664Z,86.40
2022-08-17T05:27:51.655Z,81.69
2022-08-17T05:28:51.649Z,70.00
2022-08-17T05:29:51.638Z,70.50
2022-08-17T05:30:51.627Z,81.30
2022-08-17T05:31:51.616Z,75.59
2022-08-17T05:32:51.906Z,79.40
2022-08-17T05:33:51.595Z,75.40
2022-08-17T05:34:51.583Z,79.00
2022-08-17T05:35:51.575Z,82.69
2022-08-17T05:36:51.562Z,67.09
2022-08-17T05:37:51.554Z,62.79
2022-08-17T05:38:51.544Z,62.00
2022-08-17T05:39:51.624Z,55.50
2022-08-17T05:40:51.519Z,66.30
2022-08-17T05:41:51.511Z,65.80
2022-08-17T05:42:51.773Z,58.79
2022-08-17T05:43:56.104Z,59.09
2022-08-17T05:44:51.479Z,57.29
2022-08-17T05:45:56.094Z,60.00
2022-08-17T05:46:51.469Z,56.00
2022-08-17T05:47:51.451Z,62.20
2022-08-17T05:48:51.436Z,66.19
2022-08-17T05:49:51.426Z,77.30
2022-08-17T05:50:51.419Z,81.50
2022-08-17T05:51:51.411Z,87.80
2022-08-17T05:52:51.598Z,73.40
2022-08-17T05:53:51.385Z,66.80
2022-08-17T05:54:51.381Z,55.79
2022-08-17T05:55:51.368Z,63.70
2022-08-17T05:56:51.358Z,58.50
2022-08-17T05:57:54.203Z,58.29
2022-08-17T05:58:51.334Z,54.50
2022-08-17T05:59:51.323Z,60.00
2022-08-17T06:00:51.430Z,58.70
2022-08-17T06:01:51.303Z,60.09
2022-08-17T06:02:51.680Z,60.40
2022-08-17T06:03:51.282Z,55.79
2022-08-17T06:04:51.273Z,78.19
2022-08-17T06:05:51.260Z,74.40
2022-08-17T06:06:51.252Z,80.19
2022-08-17T06:07:51.244Z,75.40
2022-08-17T06:08:51.759Z,56.90
2022-08-17T06:09:51.216Z,54.40
2022-08-17T06:10:51.209Z,56.29
2022-08-17T06:11:53.357Z,58.40
2022-08-17T06:12:51.441Z,55.59
2022-08-17T06:13:51.179Z,60.59
2022-08-17T06:14:51.164Z,55.40
2022-08-17T06:15:51.158Z,56.59
2022-08-17T06:16:51.145Z,53.00
2022-08-17T06:17:51.134Z,55.50
2022-08-17T06:18:51.121Z,54.29
2022-08-17T06:19:51.114Z,46.59
2022-08-17T06:20:51.107Z,44.09
2022-08-17T06:21:51.093Z,42.40
2022-08-17T06:22:51.383Z,47.70
2022-08-17T06:23:51.078Z,43.70
2022-08-17T06:24:51.066Z,46.90
2022-08-17T06:25:51.054Z,41.59
2022-08-17T06:26:51.045Z,46.40
2022-08-17T06:27:53.393Z,42.09
2022-08-17T06:28:51.024Z,48.70
2022-08-17T06:29:51.017Z,47.29
2022-08-17T06:31:00.271Z,50.29
2022-08-17T06:31:52.016Z,54.00
2022-08-17T06:32:51.240Z,52.90
2022-08-17T06:33:50.974Z,54.40
2022-08-17T06:34:50.964Z,54.09
2022-08-17T06:35:50.953Z,47.59
2022-08-17T06:36:50.943Z,43.70
2022-08-17T06:37:50.932Z,43.59
2022-08-17T06:38:50.922Z,44.20
2022-08-17T06:39:50.975Z,38.59
2022-08-17T06:40:50.908Z,41.29
2022-08-17T06:41:50.894Z,39.20
2022-08-17T06:43:06.149Z,39.29
2022-08-17T06:43:50.872Z,46.50
2022-08-17T06:44:51.597Z,45.90
2022-08-17T06:45:50.849Z,38.50
2022-08-17T06:46:50.841Z,34.79
2022-08-17T06:47:50.839Z,34.29
2022-08-17T06:48:50.824Z,33.29
2022-08-17T06:49:55.290Z,36.79
2022-08-17T06:50:50.805Z,34.20
2022-08-17T06:51:50.798Z,32.20
2022-08-17T06:52:50.780Z,31.60
2022-08-17T06:53:50.766Z,30.10
2022-08-17T06:54:50.814Z,29.10
2022-08-17T06:55:50.749Z,37.70
2022-08-17T06:56:53.071Z,31.00
2022-08-17T06:57:50.727Z,40.59
2022-08-17T06:58:50.715Z,44.29
2022-08-17T06:59:55.204Z,41.70
2022-08-17T07:00:54.157Z,41.00
2022-08-17T07:01:51.703Z,39.09
2022-08-17T07:03:02.335Z,36.20
2022-08-17T07:03:50.661Z,31.20
2022-08-17T07:04:50.650Z,29.00
2022-08-17T07:05:50.640Z,30.39
2022-08-17T07:06:50.633Z,30.50
2022-08-17T07:07:50.621Z,25.50
2022-08-17T07:08:50.610Z,29.79
2022-08-17T07:09:50.596Z,23.89
2022-08-17T07:10:50.587Z,22.29
2022-08-17T07:11:50.575Z,24.79
2022-08-17T07:12:50.770Z,28.20
2022-08-17T07:13:51.727Z,25.29
2022-08-17T07:14:50.544Z,23.50
2022-08-17T07:15:53.966Z,26.29
2022-08-17T07:16:51.544Z,21.29
2022-08-17T07:17:50.514Z,24.70
2022-08-17T07:18:50.502Z,23.20
2022-08-17T07:19:50.494Z,23.20
2022-08-17T07:20:50.481Z,19.39
2022-08-17T07:21:50.467Z,18.70
2022-08-17T07:22:57.769Z,25.50
2022-08-17T07:23:50.449Z,20.79
2022-08-17T07:24:50.439Z,24.70
2022-08-17T07:25:50.429Z,16.79
2022-08-17T07:26:50.428Z,17.29
2022-08-17T07:27:50.564Z,19.00
2022-08-17T07:28:50.400Z,17.00
2022-08-17T07:29:50.391Z,15.30
2022-08-17T07:30:50.376Z,18.50
2022-08-17T07:31:50.368Z,21.10
2022-08-17T07:32:50.359Z,17.20
2022-08-17T07:33:50.345Z,18.00
2022-08-17T07:34:50.337Z,24.10
2022-08-17T07:35:50.328Z,20.39
2022-08-17T07:36:50.319Z,19.89
2022-08-17T07:37:50.518Z,18.20
2022-08-17T07:38:50.296Z,16.10
2022-08-17T07:40:14.856Z,18.00
2022-08-17T07:40:51.308Z,17.29
2022-08-17T07:41:53.346Z,19.39
2022-08-17T07:42:51.279Z,16.20
2022-08-17T07:43:50.248Z,19.89
2022-08-17T07:44:50.234Z,19.29
2022-08-17T07:45:50.226Z,17.29
2022-08-17T07:46:50.213Z,17.10
2022-08-17T07:47:50.500Z,14.89
2022-08-17T07:48:50.196Z,15.19
2022-08-17T07:49:50.185Z,17.29
2022-08-17T07:50:50.678Z,19.50
2022-08-17T07:51:50.161Z,20.00
2022-08-17T07:52:51.687Z,17.39
2022-08-17T07:53:50.143Z,18.60
2022-08-17T07:54:50.134Z,15.39
2022-08-17T07:55:50.124Z,15.69
2022-08-17T07:56:50.110Z,15.10
2022-08-17T07:57:50.366Z,15.60
2022-08-17T07:58:50.092Z,15.19
2022-08-17T07:59:50.089Z,15.00
2022-08-17T08:00:50.083Z,15.30
2022-08-17T08:01:51.751Z,16.89
2022-08-17T08:02:51.069Z,14.60
2022-08-17T08:03:52.622Z,14.10
2022-08-17T08:05:00.673Z,17.79
2022-08-17T08:05:51.178Z,15.50
2022-08-17T08:06:50.007Z,15.69
2022-08-17T08:07:50.158Z,13.69
2022-08-17T08:08:49.988Z,13.10
2022-08-17T08:09:49.974Z,26.20
2022-08-17T08:10:49.969Z,14.69
2022-08-17T08:11:49.961Z,19.00
2022-08-17T08:12:52.784Z,25.60
2022-08-17T08:13:49.937Z,32.09
2022-08-17T08:14:49.925Z,31.89
2022-08-17T08:15:54.123Z,23.89
2022-08-17T08:16:49.904Z,21.00
2022-08-17T08:17:50.186Z,21.50
2022-08-17T08:18:55.361Z,17.10
2022-08-17T08:19:50.896Z,15.69
2022-08-17T08:20:53.330Z,19.79
2022-08-17T08:21:49.852Z,15.00
2022-08-17T08:22:49.847Z,16.50
2022-08-17T08:23:49.835Z,14.60
2022-08-17T08:24:49.822Z,12.10
2022-08-17T08:25:53.479Z,19.50
2022-08-17T08:26:49.805Z,15.69
2022-08-17T08:27:49.980Z,12.19
2022-08-17T08:28:49.783Z,11.69
2022-08-17T08:29:49.775Z,12.60
2022-08-17T08:30:49.764Z,15.30
2022-08-17T08:31:49.750Z,16.70
2022-08-17T08:32:50.335Z,14.69
2022-08-17T08:33:49.732Z,14.69
2022-08-17T08:35:02.268Z,13.89
2022-08-17T08:35:49.711Z,15.60
2022-08-17T08:36:57.122Z,15.80
2022-08-17T08:37:50.784Z,13.30
2022-08-17T08:38:49.679Z,16.60
2022-08-17T08:39:49.717Z,17.10
2022-08-17T08:40:49.663Z,14.89
2022-08-17T08:41:49.651Z,14.69
2022-08-17T08:42:49.637Z,19.89
2022-08-17T08:43:53.070Z,15.19
2022-08-17T08:44:59.702Z,14.60
2022-08-17T08:45:50.633Z,16.89
2022-08-17T08:46:49.599Z,14.80
2022-08-17T08:47:49.949Z,13.30
2022-08-17T08:48:56.550Z,15.19
2022-08-17T08:50:05.602Z,15.80
2022-08-17T08:50:50.578Z,16.70
2022-08-17T08:51:49.552Z,15.89
2022-08-17T08:52:49.543Z,17.10
2022-08-17T08:53:49.528Z,15.19
2022-08-17T08:54:49.519Z,17.10
2022-08-17T08:55:49.513Z,14.80
2022-08-17T08:57:19.164Z,15.80
2022-08-17T08:57:50.736Z,16.00
2022-08-17T08:58:49.478Z,12.89
2022-08-17T08:59:57.916Z,13.80
2022-08-17T09:00:50.479Z,12.80
2022-08-17T09:01:49.507Z,14.10
2022-08-17T09:02:49.437Z,16.89
2022-08-17T09:03:53.164Z,13.10
2022-08-17T09:05:13.066Z,12.89
2022-08-17T09:05:50.500Z,15.19
2022-08-17T09:06:49.398Z,12.50
2022-08-17T09:07:49.564Z,13.39
2022-08-17T09:08:49.374Z,13.39
2022-08-17T09:09:49.368Z,13.89
2022-08-17T09:10:49.359Z,14.50
2022-08-17T09:12:01.786Z,14.30
2022-08-17T09:12:49.336Z,14.39
2022-08-17T09:13:54.408Z,12.00
2022-08-17T09:14:49.313Z,11.69
2022-08-17T09:15:49.311Z,13.50
2022-08-17T09:16:49.297Z,12.39
2022-08-17T09:17:50.119Z,12.89
2022-08-17T09:19:01.392Z,14.19
2022-08-17T09:19:50.318Z,12.80
2022-08-17T09:20:50.347Z,14.69
2022-08-17T09:21:49.241Z,14.19
2022-08-17T09:22:49.233Z,13.19
2022-08-17T09:23:49.226Z,14.30
2022-08-17T09:24:49.215Z,12.89
2022-08-17T09:25:49.206Z,15.19
2022-08-17T09:26:49.194Z,16.89
2022-08-17T09:27:49.335Z,12.19
2022-08-17T09:28:49.176Z,11.19
2022-08-17T09:29:49.165Z,10.60
2022-08-17T09:30:49.153Z,12.89
2022-08-17T09:31:49.667Z,11.50
2022-08-17T09:32:49.137Z,13.80
2022-08-17T09:33:49.129Z,11.39
2022-08-17T09:34:49.117Z,13.19
2022-08-17T09:35:49.106Z,12.60
2022-08-17T09:36:49.092Z,11.60
2022-08-17T09:37:49.202Z,12.69
2022-08-17T09:38:49.070Z,12.60
2022-08-17T09:39:49.131Z,14.69
2022-08-17T09:40:49.050Z,13.80
2022-08-17T09:41:49.553Z,12.50
2022-08-17T09:42:49.035Z,11.60
2022-08-17T09:43:49.023Z,12.60
2022-08-17T09:44:49.013Z,14.89
2022-08-17T09:45:49.001Z,12.89
2022-08-17T09:46:48.992Z,14.39
2022-08-17T09:47:49.120Z,11.80
2022-08-17T09:48:48.975Z,12.00
2022-08-17T09:49:48.968Z,13.30
2022-08-17T09:51:03.984Z,13.39
2022-08-17T09:51:49.967Z,11.30
2022-08-17T09:52:48.934Z,10.19
2022-08-17T09:53:49.815Z,12.69
2022-08-17T09:54:48.911Z,13.69
2022-08-17T09:55:48.905Z,15.00
2022-08-17T09:57:05.713Z,11.69
2022-08-17T09:57:50.110Z,12.19
2022-08-17T09:58:48.876Z,13.00
2022-08-17T09:59:48.865Z,10.69
2022-08-17T10:00:48.886Z,11.19
2022-08-17T10:01:48.848Z,10.00
2022-08-17T10:02:48.841Z,12.60
2022-08-17T10:03:48.828Z,10.39
2022-08-17T10:04:48.816Z,11.60
2022-08-17T10:05:48.808Z,10.19
2022-08-17T10:06:48.797Z,11.60
2022-08-17T10:07:48.788Z,15.00
2022-08-17T10:08:48.780Z,10.19
2022-08-17T10:09:48.772Z,11.19
2022-08-17T10:10:56.315Z,11.30
2022-08-17T10:11:50.427Z,10.60
2022-08-17T10:12:48.746Z,11.30
2022-08-17T10:13:53.063Z,11.60
2022-08-17T10:14:53.538Z,10.39
2022-08-17T10:15:48.712Z,12.89
2022-08-17T10:16:48.700Z,12.19
2022-08-17T10:17:49.011Z,9.39
2022-08-17T10:18:48.688Z,11.89
2022-08-17T10:19:48.672Z,11.30
2022-08-17T10:20:48.665Z,10.00
2022-08-17T10:21:48.656Z,10.60
2022-08-17T10:22:53.093Z,10.10
2022-08-17T10:23:49.656Z,12.19
2022-08-17T10:25:22.994Z,12.10
2022-08-17T10:25:55.212Z,10.80
2022-08-17T10:26:56.071Z,11.69
2022-08-17T10:27:49.788Z,11.30
2022-08-17T10:28:48.587Z,10.50
2022-08-17T10:29:49.764Z,10.80
2022-08-17T10:30:48.570Z,10.60
2022-08-17T10:31:48.561Z,13.19
2022-08-17T10:32:48.550Z,12.10
2022-08-17T10:33:48.543Z,10.60
2022-08-17T10:34:48.533Z,11.10
2022-08-17T10:35:48.525Z,13.19
2022-08-17T10:36:48.517Z,9.19
2022-08-17T10:37:48.505Z,10.89
2022-08-17T10:38:48.493Z,9.50
2022-08-17T10:39:51.912Z,13.19
2022-08-17T10:40:48.473Z,10.19
2022-08-17T10:41:48.465Z,12.10
2022-08-17T10:42:48.457Z,12.10
2022-08-17T10:43:55.757Z,11.39
2022-08-17T10:44:49.459Z,9.80
2022-08-17T10:45:48.430Z,11.10
2022-08-17T10:46:49.439Z,12.00
2022-08-17T10:47:55.612Z,10.30
2022-08-17T10:48:49.424Z,11.10
2022-08-17T10:49:48.394Z,11.00
2022-08-17T10:50:48.389Z,10.60
2022-08-17T10:51:48.379Z,11.10
2022-08-17T10:52:48.368Z,9.50
2022-08-17T10:53:48.357Z,12.30
2022-08-17T10:54:48.355Z,11.00
2022-08-17T10:55:48.341Z,10.60
2022-08-17T10:56:48.334Z,12.19
2022-08-17T10:57:48.322Z,10.30
2022-08-17T10:58:48.313Z,12.10
2022-08-17T10:59:48.306Z,10.19
2022-08-17T11:00:48.339Z,10.00
2022-08-17T11:01:48.287Z,11.69
2022-08-17T11:02:48.277Z,11.30
2022-08-17T11:03:48.267Z,9.00
2022-08-17T11:04:48.259Z,11.89
2022-08-17T11:05:48.250Z,12.00
2022-08-17T11:06:48.241Z,10.00
2022-08-17T11:07:48.233Z,11.50
2022-08-17T11:08:48.226Z,10.00
2022-08-17T11:09:48.220Z,8.69
2022-08-17T11:10:51.971Z,13.69
2022-08-17T11:11:48.199Z,12.60
2022-08-17T11:12:48.190Z,10.60
2022-08-17T11:13:48.178Z,9.80
2022-08-17T11:14:48.179Z,11.19
2022-08-17T11:15:48.161Z,11.00
2022-08-17T11:16:48.155Z,13.39
2022-08-17T11:17:48.145Z,9.60
2022-08-17T11:18:48.137Z,9.19
2022-08-17T11:19:48.125Z,10.30
2022-08-17T11:20:48.120Z,10.69
2022-08-17T11:21:48.108Z,11.00
2022-08-17T11:22:48.096Z,10.89
2022-08-17T11:23:48.090Z,12.89
2022-08-17T11:24:48.083Z,10.39
2022-08-17T11:25:48.072Z,11.10
2022-08-17T11:26:48.067Z,12.19
2022-08-17T11:27:48.054Z,11.30
2022-08-17T11:28:48.049Z,10.00
2022-08-17T11:29:52.531Z,9.19
2022-08-17T11:30:48.712Z,10.89
2022-08-17T11:31:48.022Z,10.60
2022-08-17T11:32:51.998Z,11.50
2022-08-17T11:33:49.023Z,11.00
2022-08-17T11:34:47.993Z,11.39
2022-08-17T11:35:47.987Z,10.89
2022-08-17T11:36:47.981Z,12.10
2022-08-17T11:37:47.971Z,10.00
2022-08-17T11:38:47.961Z,9.69
2022-08-17T11:39:48.033Z,12.60
2022-08-17T11:40:47.943Z,11.89
2022-08-17T11:41:47.933Z,11.69
2022-08-17T11:42:47.922Z,11.80
2022-08-17T11:43:47.915Z,9.69
2022-08-17T11:44:47.907Z,10.19
2022-08-17T11:45:47.896Z,10.39
2022-08-17T11:46:51.844Z,10.50
2022-08-17T11:48:08.873Z,11.39
2022-08-17T11:48:48.891Z,11.39
2022-08-17T11:49:47.861Z,13.30
2022-08-17T11:50:47.953Z,10.80
2022-08-17T11:51:47.848Z,10.10
2022-08-17T11:52:47.831Z,10.39
2022-08-17T11:53:47.823Z,11.19
2022-08-17T11:54:47.815Z,9.19
2022-08-17T11:55:47.808Z,12.19
2022-08-17T11:56:47.799Z,10.80
2022-08-17T11:57:47.789Z,11.80
2022-08-17T11:58:47.782Z,10.60
2022-08-17T11:59:47.770Z,11.19
2022-08-17T12:00:47.762Z,14.00
2022-08-17T12:01:47.752Z,11.30
2022-08-17T12:02:48.746Z,15.30
2022-08-17T12:03:53.985Z,16.60
2022-08-17T12:04:48.849Z,9.80
2022-08-17T12:05:47.726Z,9.39
2022-08-17T12:06:47.707Z,11.00
2022-08-17T12:07:47.702Z,12.89
2022-08-17T12:08:47.689Z,10.69
2022-08-17T12:09:47.679Z,11.19
2022-08-17T12:10:47.671Z,12.30
2022-08-17T12:12:11.277Z,11.69
2022-08-17T12:12:48.678Z,12.50
2022-08-17T12:13:47.645Z,11.89
2022-08-17T12:15:12.402Z,11.10
2022-08-17T12:15:48.658Z,11.89
2022-08-17T12:16:47.621Z,10.00
2022-08-17T12:17:47.611Z,11.30
2022-08-17T12:21:35.471Z,12.69
2022-08-17T12:22:36.871Z,11.30
2022-08-17T12:24:54.364Z,12.60
2022-08-17T12:24:55.780Z,10.69
2022-08-17T12:25:55.768Z,11.19
2022-08-17T12:26:55.758Z,9.69
2022-08-17T12:28:06.046Z,11.30
2022-08-17T12:28:56.763Z,10.89
2022-08-17T12:29:55.734Z,10.30
2022-08-17T12:30:55.728Z,12.80
2022-08-17T12:31:55.718Z,11.50
2022-08-17T12:32:55.708Z,11.19
2022-08-17T12:33:55.702Z,12.89
2022-08-17T12:34:55.691Z,12.60
2022-08-17T12:35:59.310Z,12.69
2022-08-17T12:36:55.674Z,12.39
2022-08-17T12:37:55.663Z,12.60
2022-08-17T12:38:55.656Z,12.19
2022-08-17T12:39:55.721Z,11.60
2022-08-17T12:40:55.638Z,12.80
2022-08-17T12:42:01.404Z,12.60
2022-08-17T12:42:56.641Z,11.39
2022-08-17T12:43:55.610Z,11.19
2022-08-17T12:44:55.602Z,11.00
2022-08-17T12:45:55.593Z,13.30
2022-08-17T12:46:55.582Z,12.89
2022-08-17T12:47:55.572Z,14.19
2022-08-17T12:48:59.676Z,12.19
2022-08-17T12:49:55.556Z,12.89
2022-08-17T12:50:55.547Z,12.30
2022-08-17T12:51:55.542Z,11.80
2022-08-17T12:52:59.672Z,12.69
2022-08-17T12:53:55.538Z,11.80
2022-08-17T12:54:55.513Z,11.89
2022-08-17T12:55:55.501Z,11.69
2022-08-17T12:56:55.493Z,13.10
2022-08-17T12:57:55.480Z,13.19
2022-08-17T12:58:55.475Z,12.10
2022-08-17T12:59:55.462Z,12.50
2022-08-17T13:00:55.453Z,12.69
2022-08-17T13:01:55.530Z,11.89
2022-08-17T13:02:55.432Z,15.00
2022-08-17T13:03:55.425Z,11.89
2022-08-17T13:04:55.415Z,14.50
2022-08-17T13:05:55.407Z,12.50
2022-08-17T13:06:59.807Z,15.60
2022-08-17T13:07:55.387Z,14.19
2022-08-17T13:08:55.378Z,12.39
2022-08-17T13:09:55.372Z,15.60
2022-08-17T13:10:55.359Z,13.69
2022-08-17T13:11:55.351Z,11.80
2022-08-17T13:12:55.341Z,11.50
2022-08-17T13:13:55.329Z,14.89
2022-08-17T13:14:55.320Z,14.50
2022-08-17T13:15:55.310Z,13.69
2022-08-17T13:16:55.298Z,12.89
2022-08-17T13:17:55.294Z,13.00
2022-08-17T13:18:55.283Z,12.30
2022-08-17T13:19:55.269Z,13.60
2022-08-17T13:20:55.263Z,12.30
2022-08-17T13:21:55.255Z,13.50
2022-08-17T13:22:55.242Z,13.89
2022-08-17T13:23:55.233Z,15.39
2022-08-17T13:24:55.226Z,11.50
2022-08-17T13:25:55.224Z,12.19
2022-08-17T13:26:55.201Z,13.19
2022-08-17T13:27:55.199Z,16.39
2022-08-17T13:28:55.189Z,15.10
2022-08-17T13:29:55.179Z,13.10
2022-08-17T13:30:55.165Z,12.80
2022-08-17T13:31:59.762Z,16.10
2022-08-17T13:32:55.932Z,11.10
2022-08-17T13:33:55.136Z,13.39
2022-08-17T13:35:13.152Z,17.00
2022-08-17T13:35:55.123Z,15.30
2022-08-17T13:36:55.109Z,15.19
2022-08-17T13:37:55.101Z,15.50
2022-08-17T13:38:55.090Z,13.80
2022-08-17T13:39:55.191Z,13.39
2022-08-17T13:40:55.071Z,13.80
2022-08-17T13:41:55.063Z,15.30
2022-08-17T13:42:55.055Z,13.60
2022-08-17T13:43:55.082Z,12.89
2022-08-17T13:44:55.031Z,13.30
2022-08-17T13:45:55.018Z,13.30
2022-08-17T13:46:57.073Z,15.89
2022-08-17T13:47:55.001Z,14.00
2022-08-17T13:48:54.995Z,13.80
2022-08-17T13:49:54.982Z,14.19
2022-08-17T13:50:54.971Z,13.30
2022-08-17T13:51:54.964Z,12.80
2022-08-17T13:52:54.955Z,14.50
2022-08-17T13:53:54.943Z,14.60
2022-08-17T13:54:55.612Z,14.19
2022-08-17T13:55:54.926Z,15.39